CST,Max TemperatureF,Mean TemperatureF,Min TemperatureF,Max Dew PointF,MeanDew PointF,Min DewpointF,Max Humidity, Mean Humidity, Min Humidity, Max Sea Level PressureIn, Mean Sea Level PressureIn, Min Sea Level PressureIn, Max VisibilityMiles, Mean VisibilityMiles, Min VisibilityMiles, Max Wind SpeedMPH, Mean Wind SpeedMPH, Max Gust SpeedMPH,PrecipitationIn, CloudCover, Events, WindDirDegrees
2012-12-1,69,54,38,57,50,39,93,75,57,29.99,29.88,29.77,10,5,0,14,5,20,0.00,5,Fog,150
2012-12-2,69,51,32,53,41,34,100,70,40,30.05,29.95,29.80,10,4,0,14,4,18,0.00,1,Fog,128
2012-12-3,74,62,49,58,48,33,84,62,39,30.08,29.82,29.68,10,10,10,25,13,37,0.00,1,,241
2012-12-4,64,48,31,33,27,21,82,51,20,30.33,30.26,30.10,10,10,10,10,2,15,0.00,0,,272
2012-12-5,62,45,28,31,27,23,85,54,23,30.34,30.20,30.01,10,10,10,22,6,28,0.00,0,,147
2012-12-6,53,47,40,41,37,29,71,64,57,29.98,29.93,29.87,10,10,10,10,4,15,0.00,4,,57
2012-12-7,49,46,42,41,40,37,89,80,71,29.98,29.92,29.87,10,8,5,10,4,13,T,7,,359
2012-12-8,48,38,27,39,33,27,100,80,60,30.02,29.96,29.87,10,4,0,14,5,17,T,5,Fog-Rain,71
2012-12-9,44,33,22,40,28,9,93,70,46,30.16,29.98,29.84,10,6,2,26,12,30,0.01,7,Rain,311
2012-12-10,32,23,14,12,5,1,68,48,28,30.19,30.11,30.04,10,10,10,22,8,29,0.00,4,,268
2012-12-11,48,31,14,18,13,6,73,52,31,30.15,30.09,30.04,10,10,6,12,4,17,0.00,0,,226
2012-12-12,52,40,28,17,14,11,58,40,21,30.19,30.13,30.09,10,10,10,23,11,31,0.00,0,,182
2012-12-13,58,46,33,24,18,11,64,44,24,30.14,30.10,30.05,10,10,10,23,10,33,0.00,0,,173
2012-12-14,54,43,31,43,31,22,77,58,39,30.08,29.90,29.65,10,10,3,25,10,31,0.21,5,Rain,148
2012-12-15,52,44,36,45,43,36,89,80,71,29.75,29.60,29.46,10,10,6,23,10,31,0.05,7,Rain,237
2012-12-16,39,34,29,35,32,28,100,93,85,29.83,29.76,29.72,6,2,0,10,5,13,0.00,4,Fog,334
2012-12-17,51,41,31,33,30,26,92,66,39,29.81,29.76,29.65,10,7,3,12,5,16,0.00,4,,272
2012-12-18,59,46,32,32,30,28,82,59,36,29.88,29.75,29.61,10,10,10,18,6,23,0.00,0,,253
2012-12-19,43,39,35,36,34,30,82,76,70,29.88,29.67,29.51,10,8,4,24,11,31,0.06,6,Rain-Thunderstorm,45
2012-12-20,37,31,24,32,22,14,96,77,58,30.31,29.91,29.48,10,5,0,39,19,49,0.28,5,Fog-Snow,303
2012-12-21,39,26,13,23,17,11,92,71,50,30.40,30.33,30.25,10,10,2,9,3,12,0.00,0,,57
2012-12-22,50,34,18,28,22,14,88,64,39,30.23,30.05,29.96,10,10,10,9,3,12,0.00,0,,122
2012-12-23,35,28,20,23,20,17,91,77,63,30.05,30.00,29.95,8,6,4,13,7,15,0.00,1,,335
2012-12-24,26,21,16,17,12,10,84,70,55,30.20,30.13,30.04,10,9,6,18,11,25,0.00,1,,345
2012-12-25,22,18,13,13,9,6,76,64,52,30.36,30.30,30.19,10,10,10,24,14,31,0.00,6,,9
2012-12-26,29,19,8,13,8,3,80,63,46,30.34,30.27,30.19,10,10,10,12,4,15,0.00,0,,333
2012-12-27,39,28,17,25,19,12,84,68,52,30.18,30.04,29.94,10,10,10,17,7,22,0.00,5,,115
2012-12-28,32,27,21,25,20,13,85,72,58,30.16,30.04,29.97,10,8,2,17,9,22,T,8,Snow,302
2012-12-29,38,27,16,19,15,11,84,64,44,30.35,30.29,30.17,10,10,8,17,7,21,0.00,3,,279
2012-12-30,47,33,18,22,19,13,91,63,34,30.34,30.23,30.13,10,10,10,23,9,34,0.00,0,,188
2012-12-31,39,31,22,26,22,18,88,66,44,30.23,30.13,30.06,10,4,0,16,8,20,0.18,7,Fog-Snow,15